sensor_id;sensor_type;location;lat;lon;timestamp;P1;durP1;ratioP1;P2;durP2;ratioP2
62711;SDS011;48772;55.586;37.730;2024-03-08T00:00:27;8.82;;;4.25;;
62711;SDS011;48772;55.586;37.730;2024-03-08T00:02:52;6.75;;;3.53;;
62711;SDS011;48772;55.586;37.730;2024-03-08T00:05:19;7.82;;;4.40;;
62711;SDS011;48772;55.586;37.730;2024-03-08T00:07:45;8.52;;;4.65;;
62711;SDS011;48772;55.586;37.730;2024-03-08T00:10:12;7.40;;;4.80;;
62711;SDS011;48772;55.586;37.730;2024-03-08T00:12:38;6.55;;;3.42;;
62711;SDS011;48772;55.586;37.730;2024-03-08T00:15:04;7.78;;;4.20;;
62711;SDS011;48772;55.586;37.730;2024-03-08T00:17:31;4.80;;;3.75;;
62711;SDS011;48772;55.586;37.730;2024-03-08T00:19:57;7.57;;;3.25;;
62711;SDS011;48772;55.586;37.730;2024-03-08T00:22:22;7.80;;;4.50;;
62711;SDS011;48772;55.586;37.730;2024-03-08T00:24:48;6.68;;;3.78;;
62711;SDS011;48772;55.586;37.730;2024-03-08T00:27:15;6.82;;;4.55;;
62711;SDS011;48772;55.586;37.730;2024-03-08T00:29:41;7.35;;;3.72;;
62711;SDS011;48772;55.586;37.730;2024-03-08T00:32:07;5.72;;;4.05;;
62711;SDS011;48772;55.586;37.730;2024-03-08T00:34:36;5.80;;;4.38;;
62711;SDS011;48772;55.586;37.730;2024-03-08T00:37:02;5.15;;;3.38;;
62711;SDS011;48772;55.586;37.730;2024-03-08T00:39:29;5.72;;;4.05;;
62711;SDS011;48772;55.586;37.730;2024-03-08T00:41:54;7.43;;;4.30;;
62711;SDS011;48772;55.586;37.730;2024-03-08T00:44:20;6.40;;;4.22;;
62711;SDS011;48772;55.586;37.730;2024-03-08T00:46:46;8.20;;;4.47;;
62711;SDS011;48772;55.586;37.730;2024-03-08T00:49:11;6.80;;;3.83;;
62711;SDS011;48772;55.586;37.730;2024-03-08T00:51:38;8.23;;;3.75;;
62711;SDS011;48772;55.586;37.730;2024-03-08T00:54:03;8.07;;;4.05;;
62711;SDS011;48772;55.586;37.730;2024-03-08T00:56:29;9.15;;;3.83;;
62711;SDS011;48772;55.586;37.730;2024-03-08T00:58:55;6.40;;;4.13;;
62711;SDS011;48772;55.586;37.730;2024-03-08T01:01:20;7.28;;;3.85;;
62711;SDS011;48772;55.586;37.730;2024-03-08T01:03:46;5.93;;;3.25;;
62711;SDS011;48772;55.586;37.730;2024-03-08T01:06:12;5.97;;;3.95;;
62711;SDS011;48772;55.586;37.730;2024-03-08T01:08:37;9.48;;;5.00;;
62711;SDS011;48772;55.586;37.730;2024-03-08T01:11:04;6.32;;;3.78;;
62711;SDS011;48772;55.586;37.730;2024-03-08T01:13:30;7.47;;;4.10;;
62711;SDS011;48772;55.586;37.730;2024-03-08T01:15:56;6.05;;;3.70;;
62711;SDS011;48772;55.586;37.730;2024-03-08T01:18:22;5.75;;;4.07;;
62711;SDS011;48772;55.586;37.730;2024-03-08T01:20:47;5.13;;;3.28;;
62711;SDS011;48772;55.586;37.730;2024-03-08T01:23:13;6.38;;;3.65;;
62711;SDS011;48772;55.586;37.730;2024-03-08T01:25:39;6.90;;;4.03;;
62711;SDS011;48772;55.586;37.730;2024-03-08T01:28:04;7.43;;;4.25;;
62711;SDS011;48772;55.586;37.730;2024-03-08T01:30:30;7.20;;;3.92;;
62711;SDS011;48772;55.586;37.730;2024-03-08T01:32:58;7.20;;;4.15;;
62711;SDS011;48772;55.586;37.730;2024-03-08T01:35:23;7.68;;;4.07;;
62711;SDS011;48772;55.586;37.730;2024-03-08T01:37:49;5.75;;;3.88;;
62711;SDS011;48772;55.586;37.730;2024-03-08T01:40:15;7.45;;;4.53;;
62711;SDS011;48772;55.586;37.730;2024-03-08T01:42:42;7.18;;;4.22;;
62711;SDS011;48772;55.586;37.730;2024-03-08T01:45:08;7.70;;;3.55;;
62711;SDS011;48772;55.586;37.730;2024-03-08T01:47:34;6.00;;;3.92;;
62711;SDS011;48772;55.586;37.730;2024-03-08T01:50:00;9.45;;;3.97;;
62711;SDS011;48772;55.586;37.730;2024-03-08T01:52:28;4.70;;;3.08;;
62711;SDS011;48772;55.586;37.730;2024-03-08T01:54:54;4.90;;;3.13;;
62711;SDS011;48772;55.586;37.730;2024-03-08T01:57:20;4.95;;;2.97;;
62711;SDS011;48772;55.586;37.730;2024-03-08T01:59:45;7.78;;;3.90;;
62711;SDS011;48772;55.586;37.730;2024-03-08T02:02:11;4.82;;;3.20;;
62711;SDS011;48772;55.586;37.730;2024-03-08T02:04:40;5.28;;;3.28;;
62711;SDS011;48772;55.586;37.730;2024-03-08T02:07:06;4.20;;;2.85;;
62711;SDS011;48772;55.586;37.730;2024-03-08T02:09:32;5.53;;;3.38;;
62711;SDS011;48772;55.586;37.730;2024-03-08T02:11:57;4.97;;;3.50;;
62711;SDS011;48772;55.586;37.730;2024-03-08T02:14:25;6.35;;;3.63;;
62711;SDS011;48772;55.586;37.730;2024-03-08T02:16:51;6.18;;;3.45;;
62711;SDS011;48772;55.586;37.730;2024-03-08T02:19:17;4.85;;;3.22;;
62711;SDS011;48772;55.586;37.730;2024-03-08T02:21:42;5.57;;;3.63;;
62711;SDS011;48772;55.586;37.730;2024-03-08T02:24:08;8.85;;;3.38;;
62711;SDS011;48772;55.586;37.730;2024-03-08T02:26:34;7.32;;;3.22;;
62711;SDS011;48772;55.586;37.730;2024-03-08T02:29:00;4.28;;;2.30;;
62711;SDS011;48772;55.586;37.730;2024-03-08T02:31:26;6.95;;;4.00;;
62711;SDS011;48772;55.586;37.730;2024-03-08T02:33:52;8.18;;;3.95;;
62711;SDS011;48772;55.586;37.730;2024-03-08T02:36:18;5.85;;;2.88;;
62711;SDS011;48772;55.586;37.730;2024-03-08T02:38:43;7.80;;;3.20;;
62711;SDS011;48772;55.586;37.730;2024-03-08T02:41:09;5.90;;;3.60;;
62711;SDS011;48772;55.586;37.730;2024-03-08T02:43:35;6.50;;;3.80;;
62711;SDS011;48772;55.586;37.730;2024-03-08T02:46:01;5.50;;;3.15;;
62711;SDS011;48772;55.586;37.730;2024-03-08T02:48:27;7.13;;;3.70;;
62711;SDS011;48772;55.586;37.730;2024-03-08T02:50:52;6.30;;;3.33;;
62711;SDS011;48772;55.586;37.730;2024-03-08T02:53:18;7.40;;;3.80;;
62711;SDS011;48772;55.586;37.730;2024-03-08T02:55:44;7.22;;;3.65;;
62711;SDS011;48772;55.586;37.730;2024-03-08T02:58:10;5.57;;;3.28;;
62711;SDS011;48772;55.586;37.730;2024-03-08T03:00:36;5.53;;;3.38;;
62711;SDS011;48772;55.586;37.730;2024-03-08T03:03:02;5.75;;;3.28;;
62711;SDS011;48772;55.586;37.730;2024-03-08T03:05:29;8.52;;;3.53;;
62711;SDS011;48772;55.586;37.730;2024-03-08T03:07:57;6.53;;;3.45;;
62711;SDS011;48772;55.586;37.730;2024-03-08T03:10:26;5.60;;;3.60;;
62711;SDS011;48772;55.586;37.730;2024-03-08T03:12:52;9.02;;;3.38;;
62711;SDS011;48772;55.586;37.730;2024-03-08T03:15:18;5.72;;;3.08;;
62711;SDS011;48772;55.586;37.730;2024-03-08T03:17:48;7.53;;;3.28;;
62711;SDS011;48772;55.586;37.730;2024-03-08T03:20:14;4.95;;;3.25;;
62711;SDS011;48772;55.586;37.730;2024-03-08T03:22:40;7.90;;;3.25;;
62711;SDS011;48772;55.586;37.730;2024-03-08T03:25:12;7.78;;;3.63;;
62711;SDS011;48772;55.586;37.730;2024-03-08T03:30:58;6.90;;;2.47;;
62711;SDS011;48772;55.586;37.730;2024-03-08T03:33:24;7.90;;;3.85;;
62711;SDS011;48772;55.586;37.730;2024-03-08T03:35:50;7.07;;;3.70;;
62711;SDS011;48772;55.586;37.730;2024-03-08T03:38:17;7.55;;;3.80;;
62711;SDS011;48772;55.586;37.730;2024-03-08T03:40:45;4.57;;;3.08;;
62711;SDS011;48772;55.586;37.730;2024-03-08T03:43:11;9.18;;;4.03;;
62711;SDS011;48772;55.586;37.730;2024-03-08T03:45:37;6.55;;;4.18;;
62711;SDS011;48772;55.586;37.730;2024-03-08T03:48:03;7.25;;;4.13;;
62711;SDS011;48772;55.586;37.730;2024-03-08T03:50:29;5.57;;;3.58;;
62711;SDS011;48772;55.586;37.730;2024-03-08T03:52:55;6.25;;;3.92;;
62711;SDS011;48772;55.586;37.730;2024-03-08T03:55:21;8.52;;;4.65;;
62711;SDS011;48772;55.586;37.730;2024-03-08T03:57:47;8.57;;;4.22;;
62711;SDS011;48772;55.586;37.730;2024-03-08T04:00:13;5.22;;;3.20;;
62711;SDS011;48772;55.586;37.730;2024-03-08T04:02:40;4.90;;;3.38;;
62711;SDS011;48772;55.586;37.730;2024-03-08T04:05:09;7.05;;;3.58;;
62711;SDS011;48772;55.586;37.730;2024-03-08T04:07:35;6.60;;;4.05;;
62711;SDS011;48772;55.586;37.730;2024-03-08T04:10:05;7.88;;;4.20;;
62711;SDS011;48772;55.586;37.730;2024-03-08T04:12:34;7.10;;;4.57;;
62711;SDS011;48772;55.586;37.730;2024-03-08T04:15:00;7.47;;;4.47;;
62711;SDS011;48772;55.586;37.730;2024-03-08T04:17:29;7.60;;;4.60;;
62711;SDS011;48772;55.586;37.730;2024-03-08T04:19:55;7.88;;;3.50;;
62711;SDS011;48772;55.586;37.730;2024-03-08T04:22:21;6.35;;;3.60;;
62711;SDS011;48772;55.586;37.730;2024-03-08T04:24:46;5.82;;;3.30;;
62711;SDS011;48772;55.586;37.730;2024-03-08T04:27:12;11.63;;;5.00;;
62711;SDS011;48772;55.586;37.730;2024-03-08T04:29:38;7.80;;;2.67;;
62711;SDS011;48772;55.586;37.730;2024-03-08T04:32:04;2.03;;;1.77;;
62711;SDS011;48772;55.586;37.730;2024-03-08T04:34:30;6.55;;;3.13;;
62711;SDS011;48772;55.586;37.730;2024-03-08T04:36:57;3.17;;;2.00;;
62711;SDS011;48772;55.586;37.730;2024-03-08T04:39:22;11.82;;;3.80;;
62711;SDS011;48772;55.586;37.730;2024-03-08T04:41:48;10.57;;;4.55;;
62711;SDS011;48772;55.586;37.730;2024-03-08T04:44:14;6.82;;;3.08;;
62711;SDS011;48772;55.586;37.730;2024-03-08T04:46:40;5.88;;;2.95;;
62711;SDS011;48772;55.586;37.730;2024-03-08T04:49:06;5.65;;;3.53;;
62711;SDS011;48772;55.586;37.730;2024-03-08T04:51:32;9.68;;;4.28;;
62711;SDS011;48772;55.586;37.730;2024-03-08T04:53:59;8.65;;;5.07;;
62711;SDS011;48772;55.586;37.730;2024-03-08T04:56:25;7.65;;;4.57;;
62711;SDS011;48772;55.586;37.730;2024-03-08T04:58:51;8.50;;;5.32;;
62711;SDS011;48772;55.586;37.730;2024-03-08T05:01:16;5.43;;;3.42;;
62711;SDS011;48772;55.586;37.730;2024-03-08T05:03:42;2.38;;;2.17;;
62711;SDS011;48772;55.586;37.730;2024-03-08T05:06:08;4.90;;;3.45;;
62711;SDS011;48772;55.586;37.730;2024-03-08T05:08:34;9.68;;;4.72;;
62711;SDS011;48772;55.586;37.730;2024-03-08T05:11:00;4.72;;;2.72;;
62711;SDS011;48772;55.586;37.730;2024-03-08T05:13:30;4.80;;;2.97;;
62711;SDS011;48772;55.586;37.730;2024-03-08T05:15:56;9.50;;;4.45;;
62711;SDS011;48772;55.586;37.730;2024-03-08T05:18:24;4.95;;;2.75;;
62711;SDS011;48772;55.586;37.730;2024-03-08T05:20:49;8.23;;;5.22;;
62711;SDS011;48772;55.586;37.730;2024-03-08T05:23:17;12.13;;;5.85;;
62711;SDS011;48772;55.586;37.730;2024-03-08T05:25:45;10.18;;;4.32;;
62711;SDS011;48772;55.586;37.730;2024-03-08T05:28:12;12.70;;;5.18;;
62711;SDS011;48772;55.586;37.730;2024-03-08T05:30:38;11.82;;;6.15;;
62711;SDS011;48772;55.586;37.730;2024-03-08T05:33:04;10.50;;;4.93;;
62711;SDS011;48772;55.586;37.730;2024-03-08T05:35:30;10.73;;;5.00;;
62711;SDS011;48772;55.586;37.730;2024-03-08T05:37:55;9.10;;;4.88;;
62711;SDS011;48772;55.586;37.730;2024-03-08T05:40:21;8.27;;;4.82;;
62711;SDS011;48772;55.586;37.730;2024-03-08T05:42:46;8.82;;;4.57;;
62711;SDS011;48772;55.586;37.730;2024-03-08T05:45:12;12.20;;;5.25;;
62711;SDS011;48772;55.586;37.730;2024-03-08T05:47:39;11.38;;;5.82;;
62711;SDS011;48772;55.586;37.730;2024-03-08T05:50:05;12.45;;;5.35;;
62711;SDS011;48772;55.586;37.730;2024-03-08T05:52:33;11.63;;;5.35;;
62711;SDS011;48772;55.586;37.730;2024-03-08T05:54:58;10.75;;;5.68;;
62711;SDS011;48772;55.586;37.730;2024-03-08T05:57:24;11.07;;;4.07;;
62711;SDS011;48772;55.586;37.730;2024-03-08T05:59:50;7.47;;;4.20;;
62711;SDS011;48772;55.586;37.730;2024-03-08T06:02:15;9.63;;;4.95;;
62711;SDS011;48772;55.586;37.730;2024-03-08T06:04:47;8.18;;;3.67;;
62711;SDS011;48772;55.586;37.730;2024-03-08T06:07:13;9.40;;;5.10;;
62711;SDS011;48772;55.586;37.730;2024-03-08T06:09:39;8.40;;;5.03;;
62711;SDS011;48772;55.586;37.730;2024-03-08T06:12:04;7.65;;;3.88;;
62711;SDS011;48772;55.586;37.730;2024-03-08T06:14:31;9.65;;;4.72;;
62711;SDS011;48772;55.586;37.730;2024-03-08T06:16:57;7.72;;;4.03;;
62711;SDS011;48772;55.586;37.730;2024-03-08T06:19:23;9.82;;;4.97;;
62711;SDS011;48772;55.586;37.730;2024-03-08T06:21:48;10.27;;;5.38;;
62711;SDS011;48772;55.586;37.730;2024-03-08T06:24:14;9.32;;;5.07;;
62711;SDS011;48772;55.586;37.730;2024-03-08T06:26:40;7.25;;;3.63;;
62711;SDS011;48772;55.586;37.730;2024-03-08T06:29:06;10.77;;;5.13;;
62711;SDS011;48772;55.586;37.730;2024-03-08T06:31:32;6.97;;;3.92;;
62711;SDS011;48772;55.586;37.730;2024-03-08T06:33:58;9.75;;;4.45;;
62711;SDS011;48772;55.586;37.730;2024-03-08T06:36:24;8.82;;;4.38;;
62711;SDS011;48772;55.586;37.730;2024-03-08T06:38:50;11.00;;;5.38;;
62711;SDS011;48772;55.586;37.730;2024-03-08T06:41:15;10.52;;;5.32;;
62711;SDS011;48772;55.586;37.730;2024-03-08T06:43:46;10.57;;;5.25;;
62711;SDS011;48772;55.586;37.730;2024-03-08T06:46:12;8.98;;;4.05;;
62711;SDS011;48772;55.586;37.730;2024-03-08T06:48:38;9.13;;;4.72;;
62711;SDS011;48772;55.586;37.730;2024-03-08T06:51:04;7.03;;;3.88;;
62711;SDS011;48772;55.586;37.730;2024-03-08T06:53:30;8.38;;;4.82;;
62711;SDS011;48772;55.586;37.730;2024-03-08T06:55:57;11.43;;;5.20;;
62711;SDS011;48772;55.586;37.730;2024-03-08T06:58:23;6.07;;;3.42;;
62711;SDS011;48772;55.586;37.730;2024-03-08T07:00:48;9.20;;;5.70;;
62711;SDS011;48772;55.586;37.730;2024-03-08T07:03:17;5.95;;;3.33;;
62711;SDS011;48772;55.586;37.730;2024-03-08T07:05:43;3.97;;;2.63;;
62711;SDS011;48772;55.586;37.730;2024-03-08T07:08:09;8.02;;;2.72;;
62711;SDS011;48772;55.586;37.730;2024-03-08T07:10:34;9.23;;;4.18;;
62711;SDS011;48772;55.586;37.730;2024-03-08T07:13:02;6.35;;;3.83;;
62711;SDS011;48772;55.586;37.730;2024-03-08T07:15:28;9.85;;;4.85;;
62711;SDS011;48772;55.586;37.730;2024-03-08T07:17:54;8.75;;;5.43;;
62711;SDS011;48772;55.586;37.730;2024-03-08T07:20:20;4.75;;;2.88;;
62711;SDS011;48772;55.586;37.730;2024-03-08T07:22:46;3.25;;;2.17;;
62711;SDS011;48772;55.586;37.730;2024-03-08T07:25:18;8.35;;;4.82;;
62711;SDS011;48772;55.586;37.730;2024-03-08T07:27:44;8.80;;;5.25;;
62711;SDS011;48772;55.586;37.730;2024-03-08T07:30:11;7.07;;;4.40;;
62711;SDS011;48772;55.586;37.730;2024-03-08T07:32:37;10.20;;;5.40;;
62711;SDS011;48772;55.586;37.730;2024-03-08T07:35:03;8.45;;;5.30;;
62711;SDS011;48772;55.586;37.730;2024-03-08T07:37:29;9.38;;;4.93;;
62711;SDS011;48772;55.586;37.730;2024-03-08T07:39:55;9.20;;;4.38;;
62711;SDS011;48772;55.586;37.730;2024-03-08T07:42:21;9.00;;;5.18;;
62711;SDS011;48772;55.586;37.730;2024-03-08T07:44:48;8.45;;;4.35;;
62711;SDS011;48772;55.586;37.730;2024-03-08T07:47:15;12.60;;;5.10;;
62711;SDS011;48772;55.586;37.730;2024-03-08T07:49:42;11.10;;;5.93;;
62711;SDS011;48772;55.586;37.730;2024-03-08T07:52:09;7.07;;;4.80;;
62711;SDS011;48772;55.586;37.730;2024-03-08T07:54:41;9.75;;;5.03;;
62711;SDS011;48772;55.586;37.730;2024-03-08T07:57:07;7.03;;;4.60;;
62711;SDS011;48772;55.586;37.730;2024-03-08T07:59:32;8.07;;;5.45;;
62711;SDS011;48772;55.586;37.730;2024-03-08T08:01:58;9.10;;;4.50;;
62711;SDS011;48772;55.586;37.730;2024-03-08T08:04:24;6.13;;;3.75;;
62711;SDS011;48772;55.586;37.730;2024-03-08T08:06:50;12.07;;;5.85;;
62711;SDS011;48772;55.586;37.730;2024-03-08T08:09:16;9.60;;;4.90;;
62711;SDS011;48772;55.586;37.730;2024-03-08T08:11:54;10.60;;;5.05;;
62711;SDS011;48772;55.586;37.730;2024-03-08T08:14:20;9.35;;;5.00;;
62711;SDS011;48772;55.586;37.730;2024-03-08T08:16:47;5.28;;;3.40;;
62711;SDS011;48772;55.586;37.730;2024-03-08T08:19:14;11.00;;;5.97;;
62711;SDS011;48772;55.586;37.730;2024-03-08T08:21:41;10.98;;;5.78;;
62711;SDS011;48772;55.586;37.730;2024-03-08T08:24:06;4.55;;;2.80;;
62711;SDS011;48772;55.586;37.730;2024-03-08T08:26:32;7.20;;;3.97;;
62711;SDS011;48772;55.586;37.730;2024-03-08T08:28:59;6.53;;;3.67;;
62711;SDS011;48772;55.586;37.730;2024-03-08T08:31:25;9.48;;;5.40;;
62711;SDS011;48772;55.586;37.730;2024-03-08T08:33:51;10.52;;;5.85;;
62711;SDS011;48772;55.586;37.730;2024-03-08T08:36:26;5.60;;;3.08;;
62711;SDS011;48772;55.586;37.730;2024-03-08T08:38:52;14.45;;;6.00;;
62711;SDS011;48772;55.586;37.730;2024-03-08T08:41:21;8.95;;;4.15;;
62711;SDS011;48772;55.586;37.730;2024-03-08T08:43:47;11.95;;;5.72;;
62711;SDS011;48772;55.586;37.730;2024-03-08T08:46:17;7.22;;;4.45;;
62711;SDS011;48772;55.586;37.730;2024-03-08T08:48:44;12.02;;;6.35;;
62711;SDS011;48772;55.586;37.730;2024-03-08T08:51:11;5.63;;;3.00;;
62711;SDS011;48772;55.586;37.730;2024-03-08T08:53:39;10.48;;;4.63;;
62711;SDS011;48772;55.586;37.730;2024-03-08T08:56:13;7.10;;;4.70;;
62711;SDS011;48772;55.586;37.730;2024-03-08T08:58:39;5.25;;;3.30;;
62711;SDS011;48772;55.586;37.730;2024-03-08T09:01:06;11.07;;;4.95;;
62711;SDS011;48772;55.586;37.730;2024-03-08T09:03:33;13.48;;;6.20;;
62711;SDS011;48772;55.586;37.730;2024-03-08T09:06:00;9.82;;;6.28;;
62711;SDS011;48772;55.586;37.730;2024-03-08T09:08:28;10.23;;;6.03;;
62711;SDS011;48772;55.586;37.730;2024-03-08T09:10:54;9.90;;;6.32;;
62711;SDS011;48772;55.586;37.730;2024-03-08T09:13:20;7.57;;;5.05;;
62711;SDS011;48772;55.586;37.730;2024-03-08T09:15:46;9.55;;;5.80;;
62711;SDS011;48772;55.586;37.730;2024-03-08T09:18:12;9.68;;;4.90;;
62711;SDS011;48772;55.586;37.730;2024-03-08T09:20:38;12.30;;;6.35;;
62711;SDS011;48772;55.586;37.730;2024-03-08T09:23:03;9.50;;;5.28;;
62711;SDS011;48772;55.586;37.730;2024-03-08T09:25:29;6.88;;;4.80;;
62711;SDS011;48772;55.586;37.730;2024-03-08T09:27:55;11.15;;;6.50;;
62711;SDS011;48772;55.586;37.730;2024-03-08T09:30:21;11.40;;;6.03;;
62711;SDS011;48772;55.586;37.730;2024-03-08T09:32:47;9.27;;;6.13;;
62711;SDS011;48772;55.586;37.730;2024-03-08T09:35:13;11.38;;;5.47;;
62711;SDS011;48772;55.586;37.730;2024-03-08T09:37:38;15.05;;;6.22;;
62711;SDS011;48772;55.586;37.730;2024-03-08T09:40:04;10.50;;;5.57;;
62711;SDS011;48772;55.586;37.730;2024-03-08T09:42:35;11.27;;;7.00;;
62711;SDS011;48772;55.586;37.730;2024-03-08T09:45:09;12.52;;;6.15;;
62711;SDS011;48772;55.586;37.730;2024-03-08T09:47:41;10.65;;;5.97;;
62711;SDS011;48772;55.586;37.730;2024-03-08T09:50:10;10.18;;;5.60;;
62711;SDS011;48772;55.586;37.730;2024-03-08T09:52:56;13.93;;;6.32;;
62711;SDS011;48772;55.586;37.730;2024-03-08T09:55:22;6.47;;;4.18;;
62711;SDS011;48772;55.586;37.730;2024-03-08T09:57:51;18.17;;;7.00;;
62711;SDS011;48772;55.586;37.730;2024-03-08T10:00:36;11.60;;;7.50;;
62711;SDS011;48772;55.586;37.730;2024-03-08T10:03:02;14.48;;;7.03;;
62711;SDS011;48772;55.586;37.730;2024-03-08T10:05:29;12.32;;;6.80;;
62711;SDS011;48772;55.586;37.730;2024-03-08T10:07:55;16.90;;;8.68;;
62711;SDS011;48772;55.586;37.730;2024-03-08T10:10:21;9.90;;;6.82;;
62711;SDS011;48772;55.586;37.730;2024-03-08T10:12:48;13.88;;;8.00;;
62711;SDS011;48772;55.586;37.730;2024-03-08T10:23:31;13.25;;;7.25;;
62711;SDS011;48772;55.586;37.730;2024-03-08T10:27:16;7.03;;;4.88;;
62711;SDS011;48772;55.586;37.730;2024-03-08T10:29:48;4.43;;;2.80;;
62711;SDS011;48772;55.586;37.730;2024-03-08T10:32:24;8.35;;;5.38;;
62711;SDS011;48772;55.586;37.730;2024-03-08T10:34:53;10.90;;;6.57;;
62711;SDS011;48772;55.586;37.730;2024-03-08T10:37:23;15.27;;;8.05;;
62711;SDS011;48772;55.586;37.730;2024-03-08T10:39:56;15.35;;;8.10;;
62711;SDS011;48772;55.586;37.730;2024-03-08T10:42:28;17.88;;;7.97;;
62711;SDS011;48772;55.586;37.730;2024-03-08T10:45:15;11.18;;;7.38;;
62711;SDS011;48772;55.586;37.730;2024-03-08T10:47:42;15.65;;;6.90;;
62711;SDS011;48772;55.586;37.730;2024-03-08T10:50:20;14.35;;;3.05;;
62711;SDS011;48772;55.586;37.730;2024-03-08T10:52:54;22.17;;;11.88;;
62711;SDS011;48772;55.586;37.730;2024-03-08T10:55:36;12.05;;;6.82;;
62711;SDS011;48772;55.586;37.730;2024-03-08T10:58:27;9.25;;;6.00;;
62711;SDS011;48772;55.586;37.730;2024-03-08T11:00:54;10.73;;;5.70;;
62711;SDS011;48772;55.586;37.730;2024-03-08T11:06:08;19.55;;;10.05;;
62711;SDS011;48772;55.586;37.730;2024-03-08T11:08:37;15.55;;;7.55;;
62711;SDS011;48772;55.586;37.730;2024-03-08T11:11:04;10.75;;;6.50;;
62711;SDS011;48772;55.586;37.730;2024-03-08T11:13:37;12.27;;;6.63;;
62711;SDS011;48772;55.586;37.730;2024-03-08T11:16:09;12.77;;;6.88;;
62711;SDS011;48772;55.586;37.730;2024-03-08T11:18:35;11.27;;;5.55;;
62711;SDS011;48772;55.586;37.730;2024-03-08T11:21:04;9.38;;;5.28;;
62711;SDS011;48772;55.586;37.730;2024-03-08T11:23:38;5.18;;;3.25;;
62711;SDS011;48772;55.586;37.730;2024-03-08T11:26:19;17.25;;;6.65;;
62711;SDS011;48772;55.586;37.730;2024-03-08T11:28:45;10.55;;;6.28;;
62711;SDS011;48772;55.586;37.730;2024-03-08T11:33:39;12.43;;;6.20;;
62711;SDS011;48772;55.586;37.730;2024-03-08T11:36:23;12.93;;;7.43;;
62711;SDS011;48772;55.586;37.730;2024-03-08T11:38:53;9.77;;;6.63;;
62711;SDS011;48772;55.586;37.730;2024-03-08T11:41:21;10.52;;;6.47;;
62711;SDS011;48772;55.586;37.730;2024-03-08T11:43:49;15.50;;;7.28;;
62711;SDS011;48772;55.586;37.730;2024-03-08T11:46:18;14.98;;;7.97;;
62711;SDS011;48772;55.586;37.730;2024-03-08T11:48:44;10.57;;;6.28;;
62711;SDS011;48772;55.586;37.730;2024-03-08T11:51:11;4.28;;;2.83;;
62711;SDS011;48772;55.586;37.730;2024-03-08T11:53:38;14.25;;;5.85;;
62711;SDS011;48772;55.586;37.730;2024-03-08T11:56:14;11.50;;;4.93;;
62711;SDS011;48772;55.586;37.730;2024-03-08T11:58:54;11.00;;;6.55;;
62711;SDS011;48772;55.586;37.730;2024-03-08T12:01:24;19.67;;;6.30;;
62711;SDS011;48772;55.586;37.730;2024-03-08T12:03:56;10.18;;;5.90;;
62711;SDS011;48772;55.586;37.730;2024-03-08T12:06:27;13.40;;;6.75;;
62711;SDS011;48772;55.586;37.730;2024-03-08T12:09:03;12.65;;;6.57;;
62711;SDS011;48772;55.586;37.730;2024-03-08T12:11:31;7.43;;;4.90;;
62711;SDS011;48772;55.586;37.730;2024-03-08T12:14:01;18.45;;;8.25;;
62711;SDS011;48772;55.586;37.730;2024-03-08T12:16:27;14.10;;;8.20;;
62711;SDS011;48772;55.586;37.730;2024-03-08T12:18:57;11.48;;;7.45;;
62711;SDS011;48772;55.586;37.730;2024-03-08T12:21:25;12.90;;;7.60;;
62711;SDS011;48772;55.586;37.730;2024-03-08T12:24:05;18.48;;;8.63;;
62711;SDS011;48772;55.586;37.730;2024-03-08T12:26:35;21.90;;;10.10;;
62711;SDS011;48772;55.586;37.730;2024-03-08T12:29:17;12.73;;;7.00;;
62711;SDS011;48772;55.586;37.730;2024-03-08T12:31:46;15.35;;;8.20;;
62711;SDS011;48772;55.586;37.730;2024-03-08T12:34:12;13.70;;;7.78;;
62711;SDS011;48772;55.586;37.730;2024-03-08T12:36:43;16.15;;;7.25;;
62711;SDS011;48772;55.586;37.730;2024-03-08T12:39:10;11.70;;;7.10;;
62711;SDS011;48772;55.586;37.730;2024-03-08T12:41:40;14.27;;;7.95;;
62711;SDS011;48772;55.586;37.730;2024-03-08T12:44:06;15.25;;;7.43;;
62711;SDS011;48772;55.586;37.730;2024-03-08T12:46:37;13.70;;;6.68;;
62711;SDS011;48772;55.586;37.730;2024-03-08T12:49:08;10.80;;;6.22;;
62711;SDS011;48772;55.586;37.730;2024-03-08T12:51:38;13.40;;;7.07;;
62711;SDS011;48772;55.586;37.730;2024-03-08T12:54:07;11.02;;;7.10;;
62711;SDS011;48772;55.586;37.730;2024-03-08T12:56:33;13.02;;;7.20;;
62711;SDS011;48772;55.586;37.730;2024-03-08T12:59:02;10.60;;;6.20;;
62711;SDS011;48772;55.586;37.730;2024-03-08T13:01:28;14.23;;;6.50;;
62711;SDS011;48772;55.586;37.730;2024-03-08T13:03:54;12.38;;;6.45;;
62711;SDS011;48772;55.586;37.730;2024-03-08T13:06:26;11.45;;;6.80;;
62711;SDS011;48772;55.586;37.730;2024-03-08T13:08:54;11.60;;;6.50;;
62711;SDS011;48772;55.586;37.730;2024-03-08T13:11:21;17.70;;;6.72;;
62711;SDS011;48772;55.586;37.730;2024-03-08T13:13:52;15.07;;;6.65;;
62711;SDS011;48772;55.586;37.730;2024-03-08T13:16:20;12.95;;;6.60;;
62711;SDS011;48772;55.586;37.730;2024-03-08T13:18:46;8.95;;;5.47;;
62711;SDS011;48772;55.586;37.730;2024-03-08T13:21:15;10.43;;;5.18;;
62711;SDS011;48772;55.586;37.730;2024-03-08T13:23:45;9.02;;;5.47;;
62711;SDS011;48772;55.586;37.730;2024-03-08T13:26:15;12.05;;;5.93;;
62711;SDS011;48772;55.586;37.730;2024-03-08T13:28:42;9.68;;;5.03;;
62711;SDS011;48772;55.586;37.730;2024-03-08T13:31:07;16.40;;;6.65;;
62711;SDS011;48772;55.586;37.730;2024-03-08T13:33:36;11.38;;;6.57;;
62711;SDS011;48772;55.586;37.730;2024-03-08T13:36:02;12.02;;;5.80;;
62711;SDS011;48772;55.586;37.730;2024-03-08T13:38:29;3.15;;;2.35;;
62711;SDS011;48772;55.586;37.730;2024-03-08T13:40:58;4.63;;;3.10;;
62711;SDS011;48772;55.586;37.730;2024-03-08T13:43:25;6.07;;;4.18;;
62711;SDS011;48772;55.586;37.730;2024-03-08T13:45:50;10.20;;;5.30;;
62711;SDS011;48772;55.586;37.730;2024-03-08T13:48:20;8.00;;;4.35;;
62711;SDS011;48772;55.586;37.730;2024-03-08T13:50:48;10.85;;;5.43;;
62711;SDS011;48772;55.586;37.730;2024-03-08T13:53:15;6.05;;;3.58;;
62711;SDS011;48772;55.586;37.730;2024-03-08T13:55:42;8.30;;;4.47;;
62711;SDS011;48772;55.586;37.730;2024-03-08T13:58:08;9.32;;;5.13;;
62711;SDS011;48772;55.586;37.730;2024-03-08T14:00:35;29.48;;;12.38;;
62711;SDS011;48772;55.586;37.730;2024-03-08T14:03:06;9.60;;;6.35;;
62711;SDS011;48772;55.586;37.730;2024-03-08T14:05:32;6.00;;;3.72;;
62711;SDS011;48772;55.586;37.730;2024-03-08T14:08:02;9.30;;;5.03;;
62711;SDS011;48772;55.586;37.730;2024-03-08T14:10:29;9.18;;;4.70;;
62711;SDS011;48772;55.586;37.730;2024-03-08T14:12:57;4.95;;;3.05;;
62711;SDS011;48772;55.586;37.730;2024-03-08T14:15:22;7.35;;;3.22;;
62711;SDS011;48772;55.586;37.730;2024-03-08T14:17:52;8.18;;;4.43;;
62711;SDS011;48772;55.586;37.730;2024-03-08T14:20:17;7.20;;;3.72;;
62711;SDS011;48772;55.586;37.730;2024-03-08T14:22:46;5.55;;;3.30;;
62711;SDS011;48772;55.586;37.730;2024-03-08T14:25:13;8.70;;;5.00;;
62711;SDS011;48772;55.586;37.730;2024-03-08T14:27:43;5.38;;;3.50;;
62711;SDS011;48772;55.586;37.730;2024-03-08T14:30:09;8.63;;;4.32;;
62711;SDS011;48772;55.586;37.730;2024-03-08T14:32:35;6.60;;;4.40;;
62711;SDS011;48772;55.586;37.730;2024-03-08T14:35:04;7.38;;;4.15;;
62711;SDS011;48772;55.586;37.730;2024-03-08T14:37:30;8.55;;;4.00;;
62711;SDS011;48772;55.586;37.730;2024-03-08T14:39:55;10.70;;;5.60;;
62711;SDS011;48772;55.586;37.730;2024-03-08T14:42:22;9.70;;;4.53;;
62711;SDS011;48772;55.586;37.730;2024-03-08T14:44:48;6.68;;;4.22;;
62711;SDS011;48772;55.586;37.730;2024-03-08T14:47:17;12.35;;;5.88;;
62711;SDS011;48772;55.586;37.730;2024-03-08T14:49:42;10.20;;;4.93;;